Time;durP1;ratioP1;P1;durP2;ratioP2;P2;SDS_P1;SDS_P2;PMS_P1;PMS_P2;Temp;Humidity;BMP_temperature;BMP_pressure;BME280_temperature;BME280_humidity;BME280_pressure;Samples;Min_cycle;Max_cycle;Signal;HPM_P1;HPM_P2
2022/10/27 00:00:40;;;;;;;13.20;9.23;;;10.50;99.90;;;;;;4979502;28;20226;-91
2022/10/27 00:03:14;;;;;;;9.80;8.23;;;10.50;99.90;;;;;;4992781;28;20232;-91
2022/10/27 00:05:45;;;;;;;12.40;8.37;;;10.50;99.90;;;;;;5007702;28;20251;-91
2022/10/27 00:08:16;;;;;;;12.30;8.77;;;10.50;99.90;;;;;;5016638;28;20423;-91
2022/10/27 00:10:43;;;;;;;14.03;9.40;;;10.50;99.90;;;;;;5004440;28;20239;-91
2022/10/27 00:13:14;;;;;;;12.97;8.77;;;10.50;99.90;;;;;;4993506;28;20652;-93
2022/10/27 00:15:44;;;;;;;10.70;8.43;;;10.50;99.90;;;;;;5001910;28;20303;-93
2022/10/27 00:18:16;;;;;;;18.27;9.87;;;10.50;99.90;;;;;;5005282;28;20910;-92
2022/10/27 00:20:45;;;;;;;13.13;8.77;;;10.50;99.90;;;;;;4999595;28;20241;-93
2022/10/27 00:23:21;;;;;;;13.97;10.23;;;10.50;99.90;;;;;;4989233;28;20276;-94
2022/10/27 00:25:56;;;;;;;16.70;12.63;;;10.50;99.90;;;;;;5004469;28;20225;-92
2022/10/27 00:28:26;;;;;;;18.87;10.40;;;10.50;99.90;;;;;;5002542;28;20232;-92
2022/10/27 00:30:58;;;;;;;15.30;10.00;;;10.50;99.90;;;;;;5000519;28;20237;-92
2022/10/27 00:33:29;;;;;;;15.17;10.00;;;10.50;99.90;;;;;;4998533;28;20356;-91
2022/10/27 00:36:07;;;;;;;15.90;9.30;;;10.50;99.90;;;;;;5004000;28;20319;-89
2022/10/27 00:38:36;;;;;;;12.43;9.87;;;10.50;99.90;;;;;;4986651;28;20220;-90
2022/10/27 00:41:05;;;;;;;12.20;9.57;;;10.50;99.90;;;;;;4999615;28;20233;-89
2022/10/27 00:43:34;;;;;;;16.30;10.20;;;10.50;99.90;;;;;;4997526;28;20934;-90
2022/10/27 00:46:06;;;;;;;15.60;10.17;;;10.40;99.90;;;;;;5002110;28;20957;-90
2022/10/27 00:48:39;;;;;;;16.00;10.53;;;10.50;99.90;;;;;;5008975;28;20242;-90
2022/10/27 00:51:06;;;;;;;14.73;10.00;;;10.50;99.90;;;;;;4990100;28;20237;-90
2022/10/27 00:53:36;;;;;;;15.27;9.63;;;10.50;99.90;;;;;;4998877;28;20242;-91
2022/10/27 00:56:04;;;;;;;14.93;10.53;;;10.60;99.90;;;;;;4996228;28;20223;-89
2022/10/27 00:58:35;;;;;;;13.53;10.07;;;10.50;99.90;;;;;;5008948;28;20224;-90
2022/10/27 01:01:06;;;;;;;13.10;9.77;;;10.60;99.90;;;;;;4998285;28;20221;-88
2022/10/27 01:03:35;;;;;;;17.03;10.17;;;10.50;99.90;;;;;;4987301;28;20298;-90
2022/10/27 01:06:11;;;;;;;14.87;9.53;;;10.50;99.90;;;;;;4994596;28;20321;-90
2022/10/27 01:08:38;;;;;;;16.07;9.07;;;10.50;99.90;;;;;;5002861;28;20240;-90
2022/10/27 01:11:06;;;;;;;11.63;8.47;;;10.50;99.90;;;;;;5008279;28;20224;-88
2022/10/27 01:13:32;;;;;;;10.83;8.67;;;10.50;99.90;;;;;;4995750;28;20217;-89
2022/10/27 01:16:12;;;;;;;12.47;9.00;;;10.50;99.90;;;;;;5011456;28;20955;-88
2022/10/27 01:18:53;;;;;;;13.07;10.07;;;10.50;99.90;;;;;;5001180;28;20744;-90
2022/10/27 01:21:43;;;;;;;13.70;9.33;;;10.50;99.90;;;;;;5016681;28;20238;-89
2022/10/27 01:24:40;;;;;;;13.67;9.70;;;10.40;99.90;;;;;;5001487;28;20227;-91
2022/10/27 01:27:12;;;;;;;11.70;9.20;;;10.40;99.90;;;;;;5005949;28;20279;-89
2022/10/27 01:30:01;;;;;;;11.13;9.47;;;10.40;99.90;;;;;;5005380;28;20221;-90
2022/10/27 01:32:36;;;;;;;13.03;9.37;;;10.30;99.90;;;;;;5002467;28;20231;-89
2022/10/27 01:35:11;;;;;;;13.03;9.63;;;10.40;99.90;;;;;;5003380;28;20245;-90
2022/10/27 01:37:43;;;;;;;14.53;9.30;;;10.30;99.90;;;;;;5006719;28;20244;-90
2022/10/27 01:40:23;;;;;;;12.23;9.70;;;10.30;99.90;;;;;;5006037;28;20229;-91
2022/10/27 01:42:56;;;;;;;15.00;10.40;;;10.30;99.90;;;;;;5003293;28;21013;-90
2022/10/27 01:45:30;;;;;;;16.10;10.53;;;10.20;99.90;;;;;;5008147;28;20326;-92
2022/10/27 01:48:01;;;;;;;14.37;9.90;;;10.30;99.90;;;;;;5005089;28;20226;-92
2022/10/27 01:50:40;;;;;;;12.87;10.13;;;10.30;99.90;;;;;;5009566;28;20298;-92
2022/10/27 01:53:07;;;;;;;17.47;12.37;;;10.30;99.90;;;;;;4992582;28;20286;-91
2022/10/27 01:55:42;;;;;;;17.03;13.07;;;10.20;99.90;;;;;;5008664;28;20235;-92
2022/10/27 01:58:28;;;;;;;19.63;11.47;;;10.30;99.90;;;;;;5005996;28;20228;-92
2022/10/27 02:01:04;;;;;;;17.97;11.03;;;10.30;99.90;;;;;;5005306;28;20236;-93
2022/10/27 02:03:50;;;;;;;12.90;10.07;;;10.20;99.90;;;;;;5001666;28;20290;-92
2022/10/27 02:06:24;;;;;;;20.97;10.83;;;10.20;99.90;;;;;;4993082;28;20227;-92
2022/10/27 02:09:04;;;;;;;12.90;9.70;;;10.20;99.90;;;;;;5011119;28;20229;-91
2022/10/27 02:11:51;;;;;;;13.63;10.00;;;10.20;99.90;;;;;;5005754;28;20288;-91
2022/10/27 02:14:44;;;;;;;15.83;10.27;;;10.20;99.90;;;;;;5001094;28;20229;-93
2022/10/27 02:17:13;;;;;;;14.07;11.13;;;10.20;99.90;;;;;;4998187;28;20322;-92
2022/10/27 02:19:46;;;;;;;12.63;10.27;;;10.20;99.90;;;;;;5004013;28;20241;-93
2022/10/27 02:22:16;;;;;;;11.93;9.53;;;10.10;99.90;;;;;;5004051;28;20225;-92
2022/10/27 02:24:42;;;;;;;15.63;9.73;;;10.10;99.90;;;;;;5002366;28;20228;-92
2022/10/27 02:27:13;;;;;;;14.47;9.77;;;10.10;99.90;;;;;;4992937;28;20248;-92
2022/10/27 02:29:44;;;;;;;12.93;9.60;;;10.10;99.90;;;;;;5005756;28;20718;-92
2022/10/27 02:32:14;;;;;;;15.07;10.33;;;10.10;99.90;;;;;;5000463;28;21000;-92
2022/10/27 02:34:44;;;;;;;17.50;10.13;;;10.10;99.90;;;;;;4999988;28;20237;-92
2022/10/27 02:37:18;;;;;;;16.47;9.87;;;10.20;99.90;;;;;;5004625;28;20260;-93
2022/10/27 02:39:45;;;;;;;16.13;9.83;;;10.20;99.90;;;;;;5003649;28;20228;-92
2022/10/27 02:42:13;;;;;;;18.57;10.67;;;10.20;99.90;;;;;;5001424;28;20226;-93
2022/10/27 02:44:40;;;;;;;13.70;10.47;;;10.20;99.90;;;;;;4998976;28;20226;-92
2022/10/27 02:47:09;;;;;;;12.27;8.90;;;10.10;99.90;;;;;;5001176;28;20316;-93
2022/10/27 02:49:36;;;;;;;15.13;10.27;;;10.10;99.90;;;;;;4997100;28;20242;-92
2022/10/27 02:52:04;;;;;;;15.30;9.60;;;10.10;99.90;;;;;;5005711;28;20304;-92
2022/10/27 02:54:31;;;;;;;14.97;10.27;;;10.10;99.90;;;;;;5000985;28;20287;-92
2022/10/27 02:56:58;;;;;;;15.20;9.80;;;10.10;99.90;;;;;;4998457;28;20233;-92
2022/10/27 02:59:25;;;;;;;15.63;9.97;;;10.10;99.90;;;;;;5004025;28;20282;-92
2022/10/27 03:01:52;;;;;;;14.63;10.63;;;10.00;99.90;;;;;;5005235;28;21638;-92
2022/10/27 03:04:20;;;;;;;16.23;11.23;;;10.00;99.90;;;;;;5003329;28;20217;-91
2022/10/27 03:06:47;;;;;;;15.50;9.87;;;10.00;99.90;;;;;;5005291;28;20232;-92
2022/10/27 03:09:16;;;;;;;12.13;9.73;;;10.00;99.90;;;;;;5003661;28;20864;-91
2022/10/27 03:11:42;;;;;;;13.10;9.43;;;10.00;99.90;;;;;;5002443;28;20228;-92
2022/10/27 03:14:09;;;;;;;19.50;11.67;;;10.00;99.90;;;;;;4996628;28;20230;-91
2022/10/27 03:16:36;;;;;;;12.63;9.07;;;10.00;99.90;;;;;;5001881;28;20228;-92
2022/10/27 03:19:02;;;;;;;17.47;11.33;;;10.00;99.90;;;;;;5000218;28;20824;-92
2022/10/27 03:21:29;;;;;;;20.23;10.00;;;9.90;99.90;;;;;;5004138;28;20253;-91
2022/10/27 03:23:56;;;;;;;15.37;10.13;;;9.90;99.90;;;;;;5001371;28;20229;-93
2022/10/27 03:26:26;;;;;;;15.50;9.40;;;9.90;99.90;;;;;;5000474;28;20231;-94
2022/10/27 03:28:55;;;;;;;15.00;9.67;;;9.90;99.90;;;;;;4999224;28;20233;-92
2022/10/27 03:31:22;;;;;;;14.20;10.20;;;9.90;99.90;;;;;;5001953;28;20374;-94
2022/10/27 03:33:55;;;;;;;10.10;8.40;;;9.90;99.90;;;;;;4991831;28;20311;-94
2022/10/27 03:36:21;;;;;;;18.87;10.93;;;9.90;99.90;;;;;;4997768;28;20670;-93
2022/10/27 03:38:53;;;;;;;24.30;10.77;;;9.90;99.90;;;;;;5001044;28;20228;-93
2022/10/27 03:41:20;;;;;;;14.83;10.20;;;9.90;99.90;;;;;;5002560;28;20224;-92
2022/10/27 03:43:48;;;;;;;17.83;10.60;;;9.90;99.90;;;;;;4998821;28;20224;-92
2022/10/27 03:46:15;;;;;;;19.27;11.00;;;9.90;99.90;;;;;;4999143;28;20230;-91
2022/10/27 03:48:42;;;;;;;18.70;10.70;;;9.90;99.90;;;;;;4996730;28;20247;-93
2022/10/27 03:51:09;;;;;;;13.40;9.47;;;9.90;99.90;;;;;;5001287;28;20227;-92
2022/10/27 03:53:36;;;;;;;13.87;9.23;;;9.80;99.90;;;;;;5000479;28;20726;-92
2022/10/27 03:56:03;;;;;;;51.80;11.03;;;9.80;99.90;;;;;;4998116;28;20750;-92
2022/10/27 03:58:30;;;;;;;107.10;15.07;;;9.70;99.90;;;;;;4998368;28;20230;-94
2022/10/27 04:01:02;;;;;;;10.67;7.63;;;9.70;99.90;;;;;;4996791;28;20324;-92
2022/10/27 04:03:31;;;;;;;12.60;7.93;;;9.70;99.90;;;;;;4994195;28;20712;-92
2022/10/27 04:05:58;;;;;;;16.23;8.10;;;9.60;99.90;;;;;;5004822;28;20216;-92
2022/10/27 04:08:25;;;;;;;12.07;7.17;;;9.60;99.90;;;;;;4999145;28;20291;-92
2022/10/27 04:10:57;;;;;;;13.63;8.03;;;9.50;99.90;;;;;;5016601;28;20239;-92
2022/10/27 04:13:24;;;;;;;14.17;9.27;;;9.50;99.90;;;;;;4999278;28;20777;-92
2022/10/27 04:15:50;;;;;;;66.67;13.17;;;9.50;99.90;;;;;;4996961;28;20309;-91
2022/10/27 04:18:21;;;;;;;17.33;10.40;;;9.50;99.90;;;;;;4998414;28;20224;-92
2022/10/27 04:20:48;;;;;;;17.00;9.93;;;9.50;99.90;;;;;;5001578;28;20924;-91
2022/10/27 04:23:15;;;;;;;18.27;9.83;;;9.50;99.90;;;;;;5008408;28;20235;-92
2022/10/27 04:25:46;;;;;;;11.30;9.20;;;9.50;99.90;;;;;;5003772;28;20334;-92
2022/10/27 04:28:14;;;;;;;12.10;8.60;;;9.50;99.90;;;;;;4999959;28;20260;-92
2022/10/27 04:30:41;;;;;;;17.37;9.77;;;9.50;99.90;;;;;;4996136;28;20243;-92
2022/10/27 04:33:08;;;;;;;41.80;11.07;;;9.50;99.90;;;;;;4996369;28;20234;-93
2022/10/27 04:35:36;;;;;;;34.80;12.37;;;9.50;99.90;;;;;;4998044;28;20830;-92
2022/10/27 04:38:04;;;;;;;283.47;22.50;;;9.50;99.90;;;;;;4997503;28;20244;-93
2022/10/27 04:41:04;;;;;;;83.07;13.30;;;9.50;99.90;;;;;;4986304;28;20219;-96
2022/10/27 04:43:44;;;;;;;82.63;14.17;;;9.50;99.90;;;;;;5001911;23;20267;-83
2022/10/27 04:46:10;;;;;;;29.13;10.50;;;9.50;99.90;;;;;;4994536;28;20245;-84
2022/10/27 04:48:37;;;;;;;13.70;10.27;;;9.50;99.90;;;;;;4981798;28;20245;-83
2022/10/27 04:51:05;;;;;;;19.10;9.97;;;9.50;99.90;;;;;;4986033;28;20225;-83
2022/10/27 04:53:32;;;;;;;56.27;11.80;;;9.50;99.90;;;;;;4986389;28;20291;-83
2022/10/27 04:55:59;;;;;;;15.00;9.53;;;9.50;99.90;;;;;;4984094;28;20887;-83
2022/10/27 04:58:25;;;;;;;15.10;9.60;;;9.50;99.90;;;;;;4979719;28;20328;-84
2022/10/27 05:00:52;;;;;;;36.43;11.13;;;9.50;99.90;;;;;;4982377;28;20234;-83
2022/10/27 05:03:19;;;;;;;22.00;9.70;;;9.50;99.90;;;;;;4982311;28;20228;-83
2022/10/27 05:05:46;;;;;;;10.00;8.40;;;9.50;99.90;;;;;;4982582;28;20235;-85
2022/10/27 05:08:14;;;;;;;17.50;10.27;;;9.60;99.90;;;;;;4984545;28;20712;-86
2022/10/27 05:10:41;;;;;;;14.67;9.43;;;9.60;99.90;;;;;;4989636;28;20595;-83
2022/10/27 05:13:08;;;;;;;14.57;9.00;;;9.60;99.90;;;;;;4984426;28;20228;-83
2022/10/27 05:15:34;;;;;;;14.60;9.07;;;9.60;99.90;;;;;;4980717;28;20229;-81
2022/10/27 05:18:01;;;;;;;12.63;9.00;;;9.60;99.90;;;;;;4972880;28;20231;-81
2022/10/27 05:20:28;;;;;;;14.27;9.17;;;9.60;99.90;;;;;;4976928;28;20231;-81
2022/10/27 05:22:54;;;;;;;16.20;9.77;;;9.60;99.90;;;;;;4975865;28;20578;-83
2022/10/27 05:25:22;;;;;;;13.40;8.90;;;9.60;99.90;;;;;;4967991;28;20706;-80
2022/10/27 05:27:49;;;;;;;18.50;9.27;;;9.60;99.90;;;;;;4980459;28;20243;-81
2022/10/27 05:30:16;;;;;;;21.90;10.47;;;9.50;99.90;;;;;;4975707;28;20220;-80
2022/10/27 05:32:42;;;;;;;23.13;9.53;;;9.60;99.90;;;;;;4970637;28;20239;-82
2022/10/27 05:35:13;;;;;;;13.60;8.97;;;9.60;99.90;;;;;;4961435;28;20221;-80
2022/10/27 05:37:45;;;;;;;14.53;9.37;;;9.60;99.90;;;;;;4970266;28;20673;-80
2022/10/27 05:40:12;;;;;;;13.20;9.03;;;9.60;99.90;;;;;;4994279;28;20354;-80
2022/10/27 05:42:40;;;;;;;12.40;8.27;;;9.60;99.90;;;;;;4969878;28;20232;-86
2022/10/27 05:45:08;;;;;;;13.30;9.10;;;9.60;99.90;;;;;;4990430;28;20233;-81
2022/10/27 05:47:35;;;;;;;13.87;8.43;;;9.50;99.90;;;;;;4976680;28;20244;-80
2022/10/27 05:50:01;;;;;;;11.97;8.87;;;9.50;99.90;;;;;;4993204;28;20226;-82
2022/10/27 05:52:28;;;;;;;18.40;9.13;;;9.50;99.90;;;;;;4979553;28;20281;-80
2022/10/27 05:54:54;;;;;;;22.97;9.37;;;9.50;99.90;;;;;;4984563;28;20863;-82
2022/10/27 05:57:21;;;;;;;14.30;10.00;;;9.50;99.90;;;;;;4981456;28;20887;-80
2022/10/27 05:59:49;;;;;;;20.90;9.93;;;9.50;99.90;;;;;;4983668;28;20727;-81
2022/10/27 06:02:16;;;;;;;17.50;9.33;;;9.50;99.90;;;;;;4981552;28;20233;-85
2022/10/27 06:04:42;;;;;;;13.53;8.70;;;9.50;99.90;;;;;;4982509;28;20873;-80
2022/10/27 06:07:09;;;;;;;16.67;9.90;;;9.50;99.90;;;;;;4998634;28;20238;-80
2022/10/27 06:09:36;;;;;;;16.63;9.27;;;9.50;99.90;;;;;;4979586;28;20232;-82
2022/10/27 06:12:02;;;;;;;18.13;9.53;;;9.50;99.90;;;;;;4983594;28;20468;-83
2022/10/27 06:14:29;;;;;;;27.37;11.80;;;9.50;99.90;;;;;;4981368;28;20243;-80
2022/10/27 06:16:58;;;;;;;21.90;14.23;;;9.50;99.90;;;;;;4981222;28;20224;-81
2022/10/27 06:19:25;;;;;;;26.60;13.70;;;9.50;99.90;;;;;;4982334;28;20228;-80
2022/10/27 06:21:52;;;;;;;12.97;11.57;;;9.50;99.90;;;;;;4978473;28;20233;-80
2022/10/27 06:24:18;;;;;;;29.87;15.00;;;9.50;99.90;;;;;;4977518;28;20316;-80
2022/10/27 06:26:45;;;;;;;63.60;16.30;;;9.50;99.90;;;;;;4975999;28;20803;-81
2022/10/27 06:29:11;;;;;;;14.70;9.67;;;9.50;99.90;;;;;;4982902;28;20766;-83
2022/10/27 06:31:41;;;;;;;20.20;9.50;;;9.50;99.90;;;;;;4984582;28;20233;-81
2022/10/27 06:34:09;;;;;;;17.90;10.87;;;9.60;99.90;;;;;;4997399;28;20245;-82
2022/10/27 06:36:36;;;;;;;16.30;10.00;;;9.60;99.90;;;;;;4981734;28;20229;-81
2022/10/27 06:39:02;;;;;;;13.77;9.80;;;9.60;99.90;;;;;;4999035;28;20219;-84
2022/10/27 06:41:29;;;;;;;16.63;9.37;;;9.60;99.90;;;;;;4983824;28;20236;-82
2022/10/27 06:43:56;;;;;;;18.67;10.30;;;9.70;99.90;;;;;;4978874;28;20243;-81
2022/10/27 06:46:22;;;;;;;17.90;10.23;;;9.70;99.90;;;;;;4987607;28;20234;-81
2022/10/27 06:48:49;;;;;;;15.03;10.30;;;9.70;99.90;;;;;;4983475;28;20237;-80
2022/10/27 06:51:17;;;;;;;15.13;10.60;;;9.80;99.90;;;;;;4983916;28;20229;-80
2022/10/27 06:53:43;;;;;;;15.57;10.13;;;9.80;99.90;;;;;;4982918;28;20229;-79
2022/10/27 06:56:10;;;;;;;20.50;11.30;;;9.90;99.90;;;;;;4986620;28;20249;-80
2022/10/27 06:58:38;;;;;;;23.40;10.43;;;9.90;99.90;;;;;;4983987;28;20257;-79
2022/10/27 07:01:05;;;;;;;12.80;10.20;;;10.00;99.90;;;;;;4993263;28;20674;-79
2022/10/27 07:03:34;;;;;;;18.17;10.53;;;10.00;99.90;;;;;;4981370;28;20324;-81
2022/10/27 07:06:00;;;;;;;15.53;10.87;;;10.10;99.90;;;;;;4982254;28;20278;-79
2022/10/27 07:08:28;;;;;;;17.97;10.67;;;10.10;99.90;;;;;;4976543;28;20234;-81
2022/10/27 07:10:55;;;;;;;17.33;12.83;;;10.20;99.90;;;;;;4989891;28;20230;-81
2022/10/27 07:13:22;;;;;;;18.27;11.97;;;10.30;99.90;;;;;;4987447;28;20251;-83
2022/10/27 07:15:49;;;;;;;13.77;11.13;;;10.30;99.90;;;;;;5003285;28;20238;-82
2022/10/27 07:18:15;;;;;;;23.87;13.77;;;10.40;99.90;;;;;;4986004;28;20225;-82
2022/10/27 07:20:45;;;;;;;15.43;11.43;;;10.40;99.90;;;;;;4991145;28;20234;-82
2022/10/27 07:23:12;;;;;;;16.73;11.27;;;10.50;99.90;;;;;;4987608;28;20229;-83
2022/10/27 07:25:40;;;;;;;15.60;10.40;;;10.60;99.90;;;;;;4990087;28;22098;-84
2022/10/27 07:28:07;;;;;;;17.43;12.03;;;10.60;99.90;;;;;;4987187;28;20329;-83
2022/10/27 07:30:35;;;;;;;19.77;11.57;;;10.70;99.90;;;;;;4993307;28;20284;-83
2022/10/27 07:33:02;;;;;;;13.97;11.00;;;10.70;99.90;;;;;;4994238;28;20857;-82
2022/10/27 07:35:29;;;;;;;16.13;10.43;;;10.80;99.90;;;;;;5000699;28;20232;-82
2022/10/27 07:37:56;;;;;;;12.03;9.90;;;10.80;99.90;;;;;;4989492;28;20779;-83
2022/10/27 07:40:23;;;;;;;13.70;10.27;;;10.90;99.90;;;;;;4988634;28;20232;-82
2022/10/27 07:42:55;;;;;;;17.80;11.13;;;10.90;99.90;;;;;;4981323;28;20299;-82
2022/10/27 07:45:23;;;;;;;14.40;10.50;;;10.90;99.90;;;;;;4989442;28;20257;-82
2022/10/27 07:47:51;;;;;;;16.23;10.50;;;11.00;99.90;;;;;;4988815;28;20234;-84
2022/10/27 07:50:19;;;;;;;18.73;10.33;;;11.00;99.90;;;;;;5001566;28;20230;-82
2022/10/27 07:52:47;;;;;;;16.27;10.83;;;11.10;99.90;;;;;;4986482;28;20229;-82
2022/10/27 07:55:15;;;;;;;13.27;9.83;;;11.10;99.90;;;;;;4987113;28;20370;-82
2022/10/27 07:57:43;;;;;;;16.70;10.67;;;11.20;99.90;;;;;;5006252;28;20230;-82
2022/10/27 08:00:13;;;;;;;13.97;10.63;;;11.20;99.90;;;;;;5000016;28;20235;-82
2022/10/27 08:02:41;;;;;;;17.73;10.53;;;11.30;99.90;;;;;;4976279;28;20376;-86
2022/10/27 08:05:08;;;;;;;14.23;11.30;;;11.40;99.90;;;;;;4980300;28;20226;-82
2022/10/27 08:07:35;;;;;;;15.60;10.40;;;11.50;99.90;;;;;;4980492;28;21009;-83
2022/10/27 08:10:03;;;;;;;16.87;10.97;;;11.50;99.90;;;;;;4988551;28;20232;-82
2022/10/27 08:12:29;;;;;;;15.03;10.90;;;11.60;99.90;;;;;;4987255;28;20528;-81
2022/10/27 08:14:56;;;;;;;14.47;10.37;;;11.60;99.90;;;;;;4987005;28;20309;-81
2022/10/27 08:17:25;;;;;;;12.83;9.83;;;11.70;99.90;;;;;;4982220;28;20222;-82
2022/10/27 08:19:52;;;;;;;17.90;10.73;;;11.70;99.90;;;;;;4989660;28;20233;-84
2022/10/27 08:22:18;;;;;;;13.37;9.67;;;11.80;99.90;;;;;;4984453;28;20231;-82
2022/10/27 08:24:45;;;;;;;14.37;10.20;;;11.80;99.90;;;;;;4983274;28;20641;-81
2022/10/27 08:27:12;;;;;;;15.73;10.87;;;11.90;99.90;;;;;;4982365;28;20248;-82
2022/10/27 08:29:38;;;;;;;12.33;10.30;;;11.90;99.90;;;;;;4984860;28;20588;-84
2022/10/27 08:32:06;;;;;;;15.80;10.47;;;12.00;99.90;;;;;;4986207;28;20227;-84
2022/10/27 08:34:34;;;;;;;17.37;11.30;;;12.10;99.90;;;;;;4990155;28;20240;-83
2022/10/27 08:37:01;;;;;;;15.70;10.27;;;12.30;99.90;;;;;;4987622;28;20223;-81
2022/10/27 08:39:28;;;;;;;17.83;10.10;;;12.50;99.90;;;;;;4986907;28;20241;-81
2022/10/27 08:42:01;;;;;;;13.87;10.10;;;12.70;99.90;;;;;;4985060;28;20220;-81
2022/10/27 08:44:32;;;;;;;17.53;10.40;;;13.00;99.90;;;;;;4979214;28;20237;-80
2022/10/27 08:47:03;;;;;;;12.77;9.23;;;13.20;99.90;;;;;;4985714;28;20260;-81
2022/10/27 08:49:37;;;;;;;14.90;9.33;;;13.40;99.90;;;;;;4976405;28;20236;-82
2022/10/27 08:52:11;;;;;;;14.47;9.20;;;13.60;99.90;;;;;;4982319;28;20239;-82
2022/10/27 08:54:38;;;;;;;11.47;7.70;;;13.80;99.90;;;;;;4977459;28;20235;-82
2022/10/27 08:57:06;;;;;;;13.00;8.40;;;14.00;99.90;;;;;;4983618;28;20223;-81
2022/10/27 08:59:34;;;;;;;11.30;8.67;;;14.20;99.90;;;;;;4979749;28;20232;-81
2022/10/27 09:02:17;;;;;;;14.63;8.47;;;14.40;99.90;;;;;;4999078;28;20735;-82
2022/10/27 09:04:57;;;;;;;11.43;7.90;;;14.60;99.90;;;;;;4982182;28;20240;-80
2022/10/27 09:07:29;;;;;;;11.80;7.80;;;14.80;99.90;;;;;;4982405;28;20666;-82
2022/10/27 09:09:59;;;;;;;11.17;8.13;;;15.00;99.90;;;;;;4998982;28;20226;-81
2022/10/27 09:12:51;;;;;;;11.43;7.70;;;15.20;99.90;;;;;;4981880;28;20233;-81
2022/10/27 09:15:34;;;;;;;10.97;7.33;;;15.40;99.90;;;;;;4980944;28;20222;-82
2022/10/27 09:18:05;;;;;;;11.87;7.00;;;15.60;99.90;;;;;;4990839;28;20222;-81
2022/10/27 09:20:38;;;;;;;9.73;6.27;;;15.80;99.90;;;;;;4986692;28;20652;-81
2022/10/27 09:23:10;;;;;;;11.70;6.73;;;16.00;99.90;;;;;;4983865;28;20749;-82
2022/10/27 09:25:39;;;;;;;8.87;6.03;;;16.20;99.90;;;;;;4986679;28;20262;-81
2022/10/27 09:28:09;;;;;;;8.77;5.70;;;16.50;99.90;;;;;;4983996;28;21241;-80
2022/10/27 09:30:37;;;;;;;11.53;6.00;;;16.80;99.90;;;;;;5001236;28;20747;-80
2022/10/27 09:33:12;;;;;;;11.63;5.97;;;17.00;99.90;;;;;;4980691;28;20991;-79
2022/10/27 09:35:41;;;;;;;9.03;5.73;;;17.20;99.90;;;;;;4983977;28;20981;-80
2022/10/27 09:38:12;;;;;;;9.03;5.50;;;17.40;99.90;;;;;;4974743;28;20213;-80
2022/10/27 09:40:39;;;;;;;7.03;4.97;;;17.40;99.90;;;;;;4982569;28;20725;-79
2022/10/27 09:43:06;;;;;;;11.80;5.30;;;17.50;99.90;;;;;;4982258;28;20259;-82
2022/10/27 09:45:32;;;;;;;8.47;5.37;;;17.60;99.90;;;;;;4980901;28;20250;-81
2022/10/27 09:48:03;;;;;;;7.10;4.80;;;17.60;99.90;;;;;;4980506;28;20245;-80
2022/10/27 09:50:39;;;;;;;9.20;5.13;;;17.70;99.90;;;;;;4980384;28;20703;-82
2022/10/27 09:53:37;;;;;;;6.70;4.63;;;17.80;99.90;;;;;;4974731;28;20240;-80
2022/10/27 09:56:05;;;;;;;7.20;4.33;;;18.00;99.90;;;;;;4977713;28;20310;-80
2022/10/27 09:58:40;;;;;;;7.47;4.43;;;18.20;99.90;;;;;;4981301;28;20252;-82
2022/10/27 10:01:07;;;;;;;8.63;4.63;;;18.40;99.90;;;;;;4980504;28;20956;-80
2022/10/27 10:03:34;;;;;;;6.63;4.13;;;18.40;99.90;;;;;;4979053;28;20226;-80
2022/10/27 10:06:03;;;;;;;7.77;4.53;;;18.50;99.90;;;;;;4987005;28;20217;-81
2022/10/27 10:08:34;;;;;;;8.17;4.03;;;18.60;99.90;;;;;;4975968;28;20257;-80
2022/10/27 10:11:03;;;;;;;6.27;4.40;;;18.60;99.90;;;;;;4976571;28;20261;-81
2022/10/27 10:13:31;;;;;;;8.17;4.57;;;18.60;99.90;;;;;;4980309;28;20682;-80
2022/10/27 10:16:08;;;;;;;7.30;4.10;;;18.60;99.90;;;;;;4983131;28;20237;-82
2022/10/27 10:18:35;;;;;;;7.10;4.40;;;18.50;99.90;;;;;;4981301;28;20230;-80
2022/10/27 10:21:05;;;;;;;10.03;4.20;;;18.50;99.90;;;;;;4979854;28;20652;-80
2022/10/27 10:23:35;;;;;;;10.97;4.37;;;18.40;99.90;;;;;;4979767;28;20316;-83
2022/10/27 10:26:10;;;;;;;10.53;4.20;;;18.30;99.90;;;;;;4979903;28;20228;-80
2022/10/27 10:28:41;;;;;;;5.43;4.30;;;18.30;99.90;;;;;;4982453;28;20232;-80
2022/10/27 10:31:10;;;;;;;6.43;4.53;;;18.20;99.90;;;;;;4978914;28;20229;-80
2022/10/27 10:33:39;;;;;;;5.53;4.10;;;18.20;99.90;;;;;;4991692;28;20242;-80
2022/10/27 10:36:25;;;;;;;6.37;4.20;;;18.20;99.90;;;;;;4981150;28;20236;-80
2022/10/27 10:38:55;;;;;;;7.93;4.20;;;18.10;99.90;;;;;;4975973;28;20222;-82
2022/10/27 10:41:22;;;;;;;7.43;4.07;;;18.10;99.90;;;;;;4990091;28;20265;-80
2022/10/27 10:44:09;;;;;;;7.07;4.10;;;18.00;99.90;;;;;;4976792;28;20248;-81
2022/10/27 10:46:38;;;;;;;19.40;9.73;;;18.00;99.90;;;;;;4984411;28;20225;-83
2022/10/27 10:49:15;;;;;;;15.00;9.93;;;18.00;99.90;;;;;;4972872;28;20222;-84
2022/10/27 10:51:42;;;;;;;13.90;9.20;;;18.00;99.90;;;;;;4980345;28;20305;-80
2022/10/27 10:54:19;;;;;;;11.83;7.17;;;17.90;99.90;;;;;;4979276;28;20226;-80
2022/10/27 10:56:52;;;;;;;116.00;66.30;;;18.00;99.90;;;;;;4979219;28;20260;-81
2022/10/27 10:59:22;;;;;;;26.50;15.20;;;18.00;99.90;;;;;;4982122;28;20240;-80
2022/10/27 11:01:54;;;;;;;22.57;16.90;;;18.00;99.90;;;;;;4984396;28;20226;-80
2022/10/27 11:04:25;;;;;;;407.70;277.80;;;18.00;99.90;;;;;;4977624;28;21783;-80
2022/10/27 11:06:59;;;;;;;122.80;86.17;;;18.10;99.90;;;;;;4981379;28;20234;-82
2022/10/27 11:09:33;;;;;;;11.17;8.03;;;18.20;99.90;;;;;;4981191;28;20312;-82
2022/10/27 11:12:02;;;;;;;95.07;75.37;;;18.30;99.90;;;;;;4981153;28;20218;-82
2022/10/27 11:14:29;;;;;;;89.07;79.60;;;18.30;99.90;;;;;;4978917;28;20234;-80
2022/10/27 11:17:03;;;;;;;41.17;36.67;;;18.40;99.90;;;;;;4981371;28;20235;-80
2022/10/27 11:19:35;;;;;;;37.10;33.80;;;18.40;99.90;;;;;;4973960;28;20268;-80
2022/10/27 11:22:09;;;;;;;9.43;7.43;;;18.40;99.90;;;;;;4986558;28;20251;-80
2022/10/27 11:24:44;;;;;;;9.37;6.20;;;18.40;99.90;;;;;;4975687;28;20237;-80
2022/10/27 11:27:15;;;;;;;9.50;7.03;;;18.40;99.90;;;;;;4977097;28;20232;-84
2022/10/27 11:29:49;;;;;;;9.27;5.87;;;18.50;99.90;;;;;;4982085;28;20244;-80
2022/10/27 11:32:22;;;;;;;15.60;14.13;;;18.40;99.90;;;;;;4979752;28;20247;-81
2022/10/27 11:34:58;;;;;;;8.80;6.20;;;18.50;99.90;;;;;;4975003;28;20236;-80
2022/10/27 11:37:34;;;;;;;10.43;9.43;;;18.40;99.90;;;;;;4978442;28;20221;-81
2022/10/27 11:40:09;;;;;;;12.53;11.23;;;18.50;99.90;;;;;;4979360;28;20224;-80
2022/10/27 11:42:43;;;;;;;7.77;5.77;;;18.50;99.90;;;;;;4979218;28;20235;-80
2022/10/27 11:45:20;;;;;;;7.07;4.90;;;18.60;99.90;;;;;;4981520;28;20221;-80
2022/10/27 11:47:50;;;;;;;84.10;72.57;;;18.60;99.90;;;;;;4981573;28;20228;-79
2022/10/27 11:50:24;;;;;;;11.33;6.27;;;18.70;99.90;;;;;;4980960;28;20234;-80
2022/10/27 11:52:56;;;;;;;6.50;4.93;;;18.90;99.90;;;;;;4975957;28;20230;-86
2022/10/27 11:55:28;;;;;;;7.47;3.83;;;19.00;99.90;;;;;;4998189;28;20230;-81
2022/10/27 11:58:02;;;;;;;7.43;3.97;;;19.10;99.90;;;;;;5000726;28;20590;-81
2022/10/27 12:00:35;;;;;;;5.20;3.40;;;19.20;99.90;;;;;;4980488;28;20226;-81
2022/10/27 12:03:40;;;;;;;6.87;3.20;;;19.30;99.90;;;;;;4984046;28;20752;-81
2022/10/27 12:06:16;;;;;;;4.97;3.10;;;19.30;99.90;;;;;;4984555;28;20228;-81
2022/10/27 12:08:52;;;;;;;6.07;2.60;;;19.30;99.90;;;;;;4985394;28;20259;-81
2022/10/27 12:11:29;;;;;;;4.88;2.58;;;19.40;99.90;;;;;;4997579;28;20252;-82
2022/10/27 12:14:00;;;;;;;5.88;2.85;;;19.40;99.90;;;;;;4981074;28;20226;-81
2022/10/27 12:16:33;;;;;;;8.07;2.63;;;19.50;99.90;;;;;;4979181;28;20226;-81
2022/10/27 12:19:06;;;;;;;5.78;2.20;;;19.40;99.90;;;;;;4989146;23;20225;-78
2022/10/27 12:21:40;;;;;;;6.32;2.50;;;19.40;99.90;;;;;;4980117;28;20225;-81
2022/10/27 12:24:18;;;;;;;4.77;2.40;;;19.50;99.90;;;;;;4984367;28;20221;-81
2022/10/27 12:26:51;;;;;;;5.37;2.30;;;19.40;99.90;;;;;;4991541;28;20330;-81
2022/10/27 12:29:23;;;;;;;6.73;2.60;;;19.40;99.90;;;;;;4988509;28;20296;-80
2022/10/27 12:31:53;;;;;;;6.90;2.67;;;19.40;99.90;;;;;;4984519;28;20236;-79
2022/10/27 12:34:22;;;;;;;5.63;2.63;;;19.40;99.90;;;;;;4983276;28;20222;-80
2022/10/27 12:36:53;;;;;;;6.00;2.50;;;19.30;99.90;;;;;;4979989;28;20247;-79
2022/10/27 12:39:26;;;;;;;4.07;2.10;;;19.30;99.90;;;;;;4979767;28;20321;-80
2022/10/27 12:42:06;;;;;;;4.57;2.10;;;19.30;99.90;;;;;;4978715;28;20230;-80
2022/10/27 12:44:40;;;;;;;3.03;2.30;;;19.20;99.90;;;;;;4972528;28;20296;-80
2022/10/27 12:47:23;;;;;;;5.20;2.73;;;19.20;99.90;;;;;;4974478;28;20689;-80
2022/10/27 12:50:01;;;;;;;6.10;2.27;;;19.20;99.90;;;;;;4982611;28;20240;-79
2022/10/27 12:52:31;;;;;;;3.47;2.03;;;19.20;99.90;;;;;;5005927;28;20702;-80
2022/10/27 12:55:16;;;;;;;6.63;2.47;;;19.30;99.90;;;;;;4977538;28;20647;-80